Time;durP1;ratioP1;P1;durP2;ratioP2;P2;SDS_P1;SDS_P2;PMS_P1;PMS_P2;Temp;Humidity;BMP_temperature;BMP_pressure;BME280_temperature;BME280_humidity;BME280_pressure;Samples;Min_cycle;Max_cycle;Signal;HPM_P1;HPM_P2
2022/12/04 00:01:09;;;;;;;;;25.50;18.75;;;;;5.33;64.54;100565.47;6178401;22;45678;-75
2022/12/04 00:03:35;;;;;;;;;22.75;19.00;;;;;5.36;64.96;100562.72;6178689;22;45450;-79
2022/12/04 00:06:07;;;;;;;;;23.75;21.00;;;;;5.34;64.31;100554.19;6178766;23;45599;-77
2022/12/04 00:08:32;;;;;;;;;24.00;19.75;;;;;5.38;64.39;100562.66;6178663;22;45753;-77
2022/12/04 00:10:58;;;;;;;;;21.75;17.75;;;;;5.37;64.53;100561.81;6175763;23;46633;-75
2022/12/04 00:16:45;;;;;;;;;19.75;18.75;;;;;5.36;64.37;100551.47;6178627;23;45477;-77
2022/12/04 00:19:10;;;;;;;;;17.50;15.00;;;;;5.35;64.50;100552.41;6178412;23;45632;-77
2022/12/04 00:21:36;;;;;;;;;22.75;17.75;;;;;5.22;64.74;100535.75;6178146;23;46608;-78
2022/12/04 00:24:01;;;;;;;;;25.00;18.75;;;;;5.30;64.50;100547.44;6177831;23;46083;-77
2022/12/04 00:26:29;;;;;;;;;26.75;20.75;;;;;5.20;64.40;100535.00;6179799;22;45551;-78
2022/12/04 00:28:56;;;;;;;;;21.00;18.25;;;;;5.28;64.34;100557.09;6179524;22;45579;-79
2022/12/04 00:31:24;;;;;;;;;22.50;19.50;;;;;5.21;64.54;100547.06;6179581;22;45623;-79
2022/12/04 00:33:49;;;;;;;;;24.00;21.00;;;;;5.26;64.73;100552.88;6179893;23;46078;-80
2022/12/04 00:36:17;;;;;;;;;27.50;20.50;;;;;5.27;64.67;100547.59;6180175;23;45627;-79
2022/12/04 00:38:43;;;;;;;;;27.00;21.00;;;;;5.32;64.46;100553.41;6179957;22;45582;-81
2022/12/04 00:41:11;;;;;;;;;25.00;21.25;;;;;5.22;64.86;100539.22;6179559;22;45509;-80
2022/12/04 00:46:58;;;;;;;;;19.00;13.00;;;;;5.29;64.92;100537.16;6175943;23;45553;-78
2022/12/04 00:49:23;;;;;;;;;26.25;22.00;;;;;5.28;64.77;100540.66;6180322;22;45350;-81
2022/12/04 00:51:48;;;;;;;;;25.25;21.00;;;;;5.22;64.47;100546.16;6179980;23;45524;-77
2022/12/04 00:54:14;;;;;;;;;27.00;21.50;;;;;5.24;64.44;100546.91;6179681;23;46902;-80
2022/12/04 00:56:39;;;;;;;;;23.25;20.25;;;;;5.10;65.08;100524.22;6181385;23;45532;-80
2022/12/04 00:59:04;;;;;;;;;23.75;19.00;;;;;5.21;65.02;100553.09;6181580;23;45898;-79
2022/12/04 01:01:30;;;;;;;;;22.75;19.00;;;;;5.22;64.82;100551.34;6181651;23;46186;-79
2022/12/04 01:03:56;;;;;;;;;14.00;11.00;;;;;5.20;64.51;100553.16;6180631;23;46072;-81
2022/12/04 01:06:30;;;;;;;;;18.75;18.25;;;;;5.20;64.58;100543.63;6181442;22;45503;-78
2022/12/04 01:09:00;;;;;;;;;27.50;22.00;;;;;5.21;65.12;100550.50;6180849;22;45660;-79
2022/12/04 01:11:28;;;;;;;;;21.00;19.50;;;;;5.20;65.09;100538.44;6180763;22;46368;-76
2022/12/04 01:17:17;;;;;;;;;24.50;21.75;;;;;5.22;65.30;100536.59;6180801;23;45766;-82
2022/12/04 01:19:42;;;;;;;;;27.50;21.75;;;;;5.21;64.71;100531.47;6180729;23;45608;-79
2022/12/04 01:22:08;;;;;;;;;24.75;18.75;;;;;5.25;64.70;100540.78;6179203;23;45606;-79
2022/12/04 01:24:33;;;;;;;;;27.25;22.00;;;;;5.25;64.78;100538.19;6179140;23;46850;-79
2022/12/04 01:26:59;;;;;;;;;32.75;21.75;;;;;5.17;64.81;100519.56;6179952;23;45483;-80
2022/12/04 01:32:46;;;;;;;;;22.25;18.50;;;;;5.19;65.17;100530.72;6179404;23;45489;-80
2022/12/04 01:35:11;;;;;;;;;24.75;21.50;;;;;5.20;64.72;100528.03;6179575;23;45565;-77
2022/12/04 01:37:37;;;;;;;;;28.00;20.25;;;;;5.13;65.02;100521.47;6176990;23;45720;-77
2022/12/04 01:40:24;;;;;;;;;32.00;18.25;;;;;5.12;64.91;100527.59;6177713;23;45497;-77
2022/12/04 01:46:17;;;;;;;;;24.00;19.00;;;;;5.16;65.27;100530.88;5999961;23;46291;-78
2022/12/04 01:48:49;;;;;;;;;24.00;22.00;;;;;5.17;65.02;100535.16;6000782;23;45500;-78
2022/12/04 01:51:23;;;;;;;;;21.00;17.75;;;;;5.17;65.01;100532.56;6001498;23;45952;-80
2022/12/04 01:53:54;;;;;;;;;24.75;21.00;;;;;5.13;65.36;100534.44;6001369;23;46297;-79
2022/12/04 01:56:25;;;;;;;;;24.75;19.25;;;;;5.19;65.26;100538.50;6001597;23;45612;-79
2022/12/04 01:58:55;;;;;;;;;22.50;20.75;;;;;5.13;65.13;100538.84;6003935;23;45619;-78
2022/12/04 02:01:22;;;;;;;;;22.00;17.75;;;;;5.22;64.99;100544.41;6003002;23;45869;-81
2022/12/04 02:03:48;;;;;;;;;31.00;26.75;;;;;5.12;65.07;100524.16;6002972;23;45595;-77
2022/12/04 02:06:16;;;;;;;;;24.25;21.75;;;;;5.13;65.04;100520.66;6000638;23;45967;-80
2022/12/04 02:08:41;;;;;;;;;34.75;25.00;;;;;5.20;65.11;100532.41;6000555;23;45588;-80
2022/12/04 02:11:41;;;;;;;;;22.00;20.00;;;;;5.27;65.03;100537.22;6000623;23;45591;-78
2022/12/04 02:14:26;;;;;;;;;22.00;17.75;;;;;5.30;65.14;100531.00;6000945;23;46364;-82
2022/12/04 02:17:18;;;;;;;;;;;;;;;;;;;;;
2022/12/04 02:20:04;;;;;;;;;30.50;24.25;;;;;5.29;65.33;100530.16;5999140;23;72525;-80
2022/12/04 02:22:55;;;;;;;;;32.00;24.50;;;;;5.34;65.35;100535.16;6083220;23;45606;-82
2022/12/04 02:25:39;;;;;;;;;26.25;25.50;;;;;5.27;64.90;100528.56;6179978;23;45566;-77
2022/12/04 02:31:37;;;;;;;;;29.00;22.50;;;;;5.34;65.26;100538.59;6179275;23;45544;-76
2022/12/04 02:34:27;;;;;;;;;28.50;25.50;;;;;5.33;65.12;100536.06;6179651;22;45582;-77
2022/12/04 02:37:01;;;;;;;;;28.00;21.75;;;;;5.32;64.81;100535.22;6179453;22;45504;-79
2022/12/04 02:39:35;;;;;;;;;26.25;22.25;;;;;5.32;65.30;100532.63;6178522;22;46137;-79
2022/12/04 02:42:07;;;;;;;;;24.50;19.50;;;;;5.31;65.06;100530.94;6178584;22;45939;-77
2022/12/04 02:47:57;;;;;;;;;38.75;28.25;;;;;5.22;65.06;100525.38;6174464;23;46194;-78
2022/12/04 02:50:23;;;;;;;;;28.50;23.00;;;;;5.29;64.96;100539.75;6178926;22;46534;-77
2022/12/04 02:52:59;;;;;;;;;31.25;27.25;;;;;5.25;65.01;100528.66;6179265;22;45478;-78
2022/12/04 02:55:31;;;;;;;;;30.25;25.00;;;;;5.22;65.30;100521.03;6179418;22;45680;-77
2022/12/04 02:58:03;;;;;;;;;30.00;25.00;;;;;5.28;65.22;100540.66;6179271;22;45560;-77
2022/12/04 03:03:59;;;;;;;;;28.50;25.50;;;;;5.35;65.51;100544.59;6179003;23;45473;-77
2022/12/04 03:06:29;;;;;;;;;34.75;27.75;;;;;5.37;65.18;100535.81;6179422;23;45610;-75
2022/12/04 03:09:03;;;;;;;;;27.50;22.25;;;;;5.37;65.06;100530.63;6178267;22;46438;-80
2022/12/04 03:11:33;;;;;;;;;30.00;23.25;;;;;5.35;64.96;100514.28;6179134;23;46292;-76
2022/12/04 03:14:21;;;;;;;;;32.00;29.00;;;;;5.40;65.01;100524.41;6179101;22;45658;-77
2022/12/04 03:16:51;;;;;;;;;31.50;25.75;;;;;5.40;65.00;100508.84;6179596;22;45692;-76
2022/12/04 03:19:28;;;;;;;;;27.75;23.75;;;;;5.44;65.33;100519.03;6178293;22;46495;-75
2022/12/04 03:21:58;;;;;;;;;33.75;26.00;;;;;5.37;64.84;100503.81;6178361;22;46203;-79
2022/12/04 03:24:29;;;;;;;;;33.00;25.50;;;;;5.45;65.11;100522.47;6179066;22;45748;-77
2022/12/04 03:27:12;;;;;;;;;32.50;28.25;;;;;5.39;65.28;100507.19;6179114;22;45568;-76
2022/12/04 03:29:54;;;;;;;;;26.00;21.00;;;;;5.43;65.23;100508.69;6178529;23;45544;-77
2022/12/04 03:32:30;;;;;;;;;27.00;24.25;;;;;5.47;65.04;100495.47;6178612;22;46178;-80
2022/12/04 03:35:01;;;;;;;;;28.00;24.25;;;;;5.28;64.85;100471.38;6179206;22;45838;-78
2022/12/04 03:37:46;;;;;;;;;26.50;24.50;;;;;5.45;64.67;100501.69;6178633;23;45723;-76
2022/12/04 03:40:23;;;;;;;;;26.50;24.75;;;;;5.46;64.73;100514.56;6178518;22;45555;-79
2022/12/04 03:43:01;;;;;;;;;31.50;25.75;;;;;5.43;64.92;100499.16;6178926;23;46068;-77
2022/12/04 03:45:41;;;;;;;;;26.25;22.00;;;;;5.44;64.93;100495.63;6179084;22;45778;-79
2022/12/04 03:48:20;;;;;;;;;22.25;20.75;;;;;5.39;64.73;100491.59;6178723;22;45467;-76
2022/12/04 03:51:06;;;;;;;;;25.00;22.25;;;;;5.23;64.93;100462.13;6178586;23;46285;-80
2022/12/04 03:53:41;;;;;;;;;27.00;21.00;;;;;5.42;65.06;100486.22;6178875;22;46212;-77
2022/12/04 03:56:14;;;;;;;;;24.00;20.25;;;;;5.41;65.09;100487.16;6178817;23;45782;-79
2022/12/04 03:58:48;;;;;;;;;36.00;27.75;;;;;5.36;64.98;100474.41;6178775;22;45753;-79
2022/12/04 04:01:16;;;;;;;;;22.50;20.00;;;;;5.33;64.71;100453.78;6179677;23;46740;-77
2022/12/04 04:03:48;;;;;;;;;29.75;25.00;;;;;5.25;64.97;100435.16;6178135;23;47455;-78
2022/12/04 04:06:23;;;;;;;;;33.25;23.50;;;;;5.33;65.09;100459.00;6180087;22;45759;-78
2022/12/04 04:08:54;;;;;;;;;30.00;21.50;;;;;5.25;64.97;100431.72;6177689;23;45628;-77
2022/12/04 04:11:28;;;;;;;;;33.00;27.50;;;;;5.20;64.89;100426.75;6179817;22;46544;-78
2022/12/04 04:25:17;;;;;;;;;31.25;24.25;;;;;5.24;65.12;100420.50;6179821;23;45623;-77
2022/12/04 04:27:54;;;;;;;;;24.00;21.75;;;;;5.23;64.91;100430.97;6179978;22;45559;-79
2022/12/04 04:34:02;;;;;;;;;32.00;25.00;;;;;5.20;65.27;100446.69;6179718;23;46050;-78
2022/12/04 04:36:37;;;;;;;;;22.25;18.50;;;;;5.20;65.07;100452.72;6177999;23;48147;-76
2022/12/04 04:39:19;;;;;;;;;37.75;29.00;;;;;5.19;65.35;100442.41;6179938;23;45821;-76
2022/12/04 04:42:17;;;;;;;;;31.25;29.25;;;;;5.13;65.29;100428.00;6177926;23;45852;-80
2022/12/04 04:44:59;;;;;;;;;33.50;26.25;;;;;5.15;65.28;100431.38;6179083;22;47362;-77
2022/12/04 04:47:32;;;;;;;;;16.75;12.00;;;;;5.23;65.13;100433.56;6179544;22;46045;-79
2022/12/04 04:50:02;;;;;;;;;27.75;25.75;;;;;5.18;65.49;100433.81;6179537;22;45617;-76
2022/12/04 04:52:28;;;;;;;;;27.25;19.50;;;;;5.22;65.43;100437.94;6180149;22;45596;-76
2022/12/04 04:54:54;;;;;;;;;27.00;21.75;;;;;5.23;65.07;100444.81;6202845;22;48626;-77
2022/12/04 04:57:34;;;;;;;;;23.00;21.75;;;;;5.21;65.33;100433.66;6179631;22;46216;-76
2022/12/04 05:00:00;;;;;;;;;27.50;23.50;;;;;5.27;65.41;100443.72;6179476;22;46011;-75
2022/12/04 05:02:26;;;;;;;;;30.25;25.50;;;;;5.28;64.98;100440.22;6180172;22;45721;-77
2022/12/04 05:04:51;;;;;;;;;36.25;28.75;;;;;5.05;64.92;100399.84;6179054;23;47558;-76
2022/12/04 05:07:16;;;;;;;;;27.50;21.75;;;;;5.32;64.88;100438.28;6179243;22;45512;-77
2022/12/04 05:09:42;;;;;;;;;33.75;24.25;;;;;5.28;65.05;100436.78;6178948;23;45490;-78
2022/12/04 05:12:08;;;;;;;;;28.00;24.25;;;;;5.32;65.13;100446.06;6179587;23;45528;-78
2022/12/04 05:14:33;;;;;;;;;28.50;25.25;;;;;5.32;64.85;100454.72;6179196;23;47195;-80
2022/12/04 05:20:20;;;;;;;;;25.50;21.25;;;;;5.32;65.03;100462.50;6179384;23;45896;-78
2022/12/04 05:22:46;;;;;;;;;30.75;23.75;;;;;5.16;65.25;100421.81;6180174;22;45371;-79
2022/12/04 05:25:11;;;;;;;;;31.25;25.25;;;;;5.32;64.97;100448.66;6179761;22;46224;-79
2022/12/04 05:27:36;;;;;;;;;25.25;21.25;;;;;5.29;65.22;100441.84;6177737;23;47428;-79
2022/12/04 05:30:02;;;;;;;;;28.00;23.00;;;;;5.33;64.89;100453.78;6179291;23;45546;-79
2022/12/04 05:36:04;;;;;;;;;31.25;25.00;;;;;5.35;65.42;100454.53;6179900;23;45558;-80
2022/12/04 05:38:31;;;;;;;;;34.25;24.75;;;;;5.37;64.96;100463.09;6179773;22;46176;-80
2022/12/04 05:40:57;;;;;;;;;28.75;24.25;;;;;5.38;64.85;100475.16;6180422;23;45804;-81
2022/12/04 05:43:23;;;;;;;;;35.75;28.50;;;;;5.40;65.23;100486.31;6179283;23;45831;-77
2022/12/04 05:45:48;;;;;;;;;27.75;26.25;;;;;5.38;64.96;100475.16;6180036;22;46517;-81
2022/12/04 05:48:14;;;;;;;;;29.50;25.75;;;;;5.41;65.11;100480.19;6178886;23;45501;-77
2022/12/04 05:50:39;;;;;;;;;32.75;23.25;;;;;5.40;65.14;100482.88;6179671;23;45566;-79
2022/12/04 05:53:05;;;;;;;;;27.25;20.75;;;;;5.41;65.07;100484.53;6180760;23;45456;-77
2022/12/04 05:55:30;;;;;;;;;24.50;23.50;;;;;5.40;65.27;100490.66;6180246;22;46234;-81
2022/12/04 05:57:56;;;;;;;;;33.25;27.25;;;;;5.39;64.89;100484.66;6180333;23;45969;-79
2022/12/04 06:00:21;;;;;;;;;32.00;28.25;;;;;5.41;64.69;100490.59;6180229;23;45606;-78
2022/12/04 06:06:17;;;;;;;;;29.75;23.50;;;;;5.37;65.03;100473.50;6184094;23;45442;-81
2022/12/04 06:08:43;;;;;;;;;31.25;27.75;;;;;5.49;65.24;100492.81;6183255;23;47143;-81
2022/12/04 06:11:16;;;;;;;;;37.00;27.75;;;;;5.51;65.09;100498.72;6184409;22;45501;-81
2022/12/04 06:13:43;;;;;;;;;32.75;26.00;;;;;5.52;65.17;100496.97;6182055;23;45780;-82
2022/12/04 06:16:20;;;;;;;;;33.00;25.50;;;;;5.54;64.99;100492.56;6181342;22;46324;-80
2022/12/04 06:18:54;;;;;;;;;34.25;26.25;;;;;5.56;64.65;100488.94;6180593;22;46191;-82
2022/12/04 06:21:21;;;;;;;;;28.50;24.00;;;;;5.49;65.07;100478.06;6156215;23;46003;-79
2022/12/04 06:23:47;;;;;;;;;35.00;27.50;;;;;5.59;64.88;100494.00;6179472;23;45867;-80
2022/12/04 06:26:13;;;;;;;;;26.25;19.25;;;;;5.44;64.89;100461.88;6181138;22;46664;-80
2022/12/04 06:28:39;;;;;;;;;32.00;25.75;;;;;5.62;65.03;100485.19;6181840;22;45605;-82
2022/12/04 06:31:07;;;;;;;;;27.50;21.50;;;;;5.62;64.86;100478.22;6182765;22;45433;-81
2022/12/04 06:33:33;;;;;;;;;22.25;19.50;;;;;5.61;64.86;100481.78;6182652;23;45551;-81
2022/12/04 06:36:01;;;;;;;;;34.00;25.75;;;;;5.59;64.92;100486.19;6182091;22;45539;-83
2022/12/04 06:38:27;;;;;;;;;28.25;23.75;;;;;5.60;64.53;100492.25;6181268;23;46006;-77
2022/12/04 06:40:52;;;;;;;;;28.25;21.00;;;;;5.62;64.62;100491.22;6181197;22;45628;-79
2022/12/04 06:43:18;;;;;;;;;37.00;21.75;;;;;5.63;64.68;100492.91;6180700;23;45836;-81
2022/12/04 06:45:43;;;;;;;;;31.50;23.50;;;;;5.63;64.61;100508.50;6179878;23;46125;-77
2022/12/04 06:52:10;;;;;;;;;39.25;29.25;;;;;5.59;64.61;100509.59;6177262;23;45925;-78
2022/12/04 06:54:35;;;;;;;;;32.50;25.25;;;;;5.45;64.93;100483.50;6180106;23;45410;-78
2022/12/04 06:57:00;;;;;;;;;28.00;25.25;;;;;5.59;64.58;100500.94;6179822;23;46389;-78
2022/12/04 06:59:26;;;;;;;;;29.25;22.75;;;;;5.61;65.07;100507.75;6179277;23;46148;-78
2022/12/04 07:01:52;;;;;;;;;29.75;25.75;;;;;5.49;64.86;100501.44;6178692;23;45968;-77
2022/12/04 07:04:17;;;;;;;;;33.25;27.50;;;;;5.61;64.87;100499.13;6179807;23;45840;-79
2022/12/04 07:06:42;;;;;;;;;30.25;24.00;;;;;5.60;64.82;100500.03;6179276;23;46282;-80
2022/12/04 07:09:10;;;;;;;;;30.25;23.25;;;;;5.60;65.19;100508.66;6179140;23;46337;-75
2022/12/04 07:11:36;;;;;;;;;35.75;28.50;;;;;5.63;64.89;100510.25;6178552;22;45679;-77
2022/12/04 07:14:02;;;;;;;;;33.75;27.50;;;;;5.54;64.69;100490.81;6179642;22;45486;-77
2022/12/04 07:16:28;;;;;;;;;28.75;23.50;;;;;5.41;64.97;100480.19;6177158;23;46396;-80
2022/12/04 07:22:15;;;;;;;;;29.50;26.75;;;;;5.63;65.25;100510.25;6179294;23;45805;-79
2022/12/04 07:24:41;;;;;;;;;29.50;25.00;;;;;5.59;65.24;100501.78;6178528;23;45510;-77
2022/12/04 07:27:06;;;;;;;;;34.25;26.75;;;;;5.63;64.84;100507.66;6179175;23;45473;-77
2022/12/04 07:29:31;;;;;;;;;32.25;25.25;;;;;5.65;65.02;100511.88;6178123;23;46563;-78
2022/12/04 07:31:57;;;;;;;;;32.25;21.00;;;;;5.60;65.22;100498.28;6178648;23;45610;-78
2022/12/04 07:34:22;;;;;;;;;27.00;21.00;;;;;5.66;65.19;100512.72;6178873;22;45630;-76
2022/12/04 07:36:47;;;;;;;;;31.00;26.25;;;;;5.66;65.13;100510.09;6179280;22;45428;-79
2022/12/04 07:39:13;;;;;;;;;33.25;27.25;;;;;5.64;65.01;100504.97;6179212;23;45528;-81
2022/12/04 07:41:38;;;;;;;;;17.75;13.00;;;;;5.70;64.74;100517.66;6177853;23;45573;-82
2022/12/04 07:44:04;;;;;;;;;36.75;29.00;;;;;5.71;64.79;100502.91;6181597;23;45472;-82
2022/12/04 07:46:29;;;;;;;;;36.25;27.50;;;;;5.66;65.16;100497.97;6185623;22;45421;-84
2022/12/04 07:52:16;;;;;;;;;30.00;26.25;;;;;5.76;65.19;100511.31;6180233;23;45782;-83
2022/12/04 07:54:42;;;;;;;;;35.00;29.50;;;;;5.77;65.06;100503.44;6179895;23;45644;-83
2022/12/04 07:57:07;;;;;;;;;36.25;32.75;;;;;5.76;65.28;100495.72;6179588;22;46335;-83
2022/12/04 07:59:32;;;;;;;;;44.75;29.75;;;;;5.80;64.81;100498.06;6178930;23;45663;-78
2022/12/04 08:01:58;;;;;;;;;30.50;25.75;;;;;5.75;64.86;100494.03;6179519;23;45675;-83
2022/12/04 08:07:45;;;;;;;;;41.00;31.50;;;;;5.78;64.89;100489.50;6180252;23;45611;-81
2022/12/04 08:10:11;;;;;;;;;30.00;27.00;;;;;5.84;64.91;100503.91;6180887;22;46323;-83
2022/12/04 08:12:36;;;;;;;;;42.50;29.00;;;;;5.79;64.86;100501.56;6179902;23;45594;-79
2022/12/04 08:15:02;;;;;;;;;29.50;22.00;;;;;5.87;64.86;100498.59;6182011;23;45591;-83
2022/12/04 08:17:28;;;;;;;;;35.25;30.00;;;;;5.86;64.88;100491.69;6182714;22;45812;-79
2022/12/04 08:23:15;;;;;;;;;36.50;31.25;;;;;5.89;65.18;100496.75;6180241;23;45593;-83
2022/12/04 08:25:41;;;;;;;;;29.00;26.25;;;;;5.92;64.82;100503.56;6177293;23;45406;-83
2022/12/04 08:28:06;;;;;;;;;31.75;28.50;;;;;5.84;65.05;100485.72;6177766;22;46285;-78
2022/12/04 08:30:33;;;;;;;;;22.75;12.00;;;;;5.95;65.29;100499.03;6177540;22;45624;-77
2022/12/04 08:32:59;;;;;;;;;33.50;30.00;;;;;5.98;64.69;100504.06;6177700;22;45546;-79
2022/12/04 08:35:24;;;;;;;;;34.50;26.75;;;;;6.00;64.79;100499.63;6178506;22;45426;-77
2022/12/04 08:37:49;;;;;;;;;44.75;33.00;;;;;5.98;65.05;100503.22;6178013;23;45746;-77
2022/12/04 08:40:15;;;;;;;;;38.25;31.75;;;;;6.02;64.33;100504.75;6177894;22;45925;-77
2022/12/04 08:42:40;;;;;;;;;35.75;27.75;;;;;6.03;64.73;100498.63;6178017;23;45637;-78
2022/12/04 08:45:06;;;;;;;;;42.25;34.75;;;;;6.09;64.82;100509.53;6178629;23;45550;-78
2022/12/04 08:47:31;;;;;;;;;34.00;29.75;;;;;6.09;64.66;100503.50;6178639;23;45537;-76
2022/12/04 08:53:19;;;;;;;;;36.75;30.75;;;;;6.14;64.66;100522.28;6173679;23;46161;-78
2022/12/04 08:55:44;;;;;;;;;49.75;34.00;;;;;6.13;64.46;100526.66;6179963;22;45469;-79
2022/12/04 08:58:11;;;;;;;;;35.75;30.75;;;;;6.18;64.43;100529.84;6178465;22;45586;-78
2022/12/04 09:00:36;;;;;;;;;33.00;26.50;;;;;6.13;64.44;100516.25;6179610;22;46179;-76
2022/12/04 09:03:01;;;;;;;;;37.50;33.75;;;;;6.18;64.38;100516.84;6179934;23;45524;-77
2022/12/04 09:08:54;;;;;;;;;42.25;30.75;;;;;6.23;64.43;100519.19;6178771;23;46022;-77
2022/12/04 09:11:21;;;;;;;;;49.25;33.25;;;;;6.24;64.54;100524.31;6178711;22;46229;-77
2022/12/04 09:13:47;;;;;;;;;49.25;33.75;;;;;6.26;64.42;100516.44;6179231;22;45626;-77
2022/12/04 09:16:16;;;;;;;;;35.00;30.75;;;;;6.22;64.39;100514.88;6177653;23;45724;-77
2022/12/04 09:18:42;;;;;;;;;36.00;27.50;;;;;6.28;64.13;100523.22;6179262;22;45461;-77
2022/12/04 09:21:10;;;;;;;;;34.00;30.00;;;;;6.24;64.36;100524.31;6178117;22;46085;-76
2022/12/04 09:23:42;;;;;;;;;37.25;30.25;;;;;6.24;64.14;100510.47;6178738;22;46046;-77
2022/12/04 09:26:28;;;;;;;;;44.00;34.00;;;;;6.37;64.14;100532.25;6180205;22;45664;-76
2022/12/04 09:28:55;;;;;;;;;32.75;27.75;;;;;6.32;64.45;100511.69;6176380;23;47576;-76
2022/12/04 09:31:21;;;;;;;;;38.25;31.00;;;;;6.37;64.24;100508.03;6176409;23;46518;-76
2022/12/04 09:33:47;;;;;;;;;37.00;32.25;;;;;6.39;63.96;100501.81;6177834;23;45665;-75
2022/12/04 09:36:16;;;;;;;;;45.25;38.25;;;;;6.44;63.85;100514.56;6178280;22;45744;-78
2022/12/04 09:38:49;;;;;;;;;42.00;30.75;;;;;6.45;64.10;100513.63;6178381;22;46677;-76
2022/12/04 09:41:17;;;;;;;;;34.75;30.50;;;;;6.44;63.92;100518.00;6177584;22;46028;-78
2022/12/04 09:44:01;;;;;;;;;39.00;28.50;;;;;6.45;63.87;100521.44;6178964;23;45444;-75
2022/12/04 09:46:58;;;;;;;;;39.25;27.75;;;;;6.45;64.08;100524.88;6179195;22;45455;-80
2022/12/04 09:49:29;;;;;;;;;35.50;30.50;;;;;6.46;63.83;100525.72;6116611;23;45719;-76
2022/12/04 09:52:01;;;;;;;;;38.50;33.25;;;;;6.36;63.89;100512.41;6116586;23;47276;-77
2022/12/04 09:54:33;;;;;;;;;34.25;27.50;;;;;6.49;63.72;100530.75;6116258;23;46022;-78
2022/12/04 09:57:04;;;;;;;;;44.75;35.00;;;;;6.43;63.95;100521.50;6116226;23;45753;-79
2022/12/04 09:59:31;;;;;;;;;33.00;29.75;;;;;6.50;63.97;100512.44;6115811;23;46513;-79
2022/12/04 10:02:22;;;;;;;;;38.25;32.50;;;;;6.54;63.82;100511.34;6115988;23;47141;-77
2022/12/04 10:04:48;;;;;;;;;41.00;33.50;;;;;6.54;63.63;100505.31;6089433;23;45847;-77
2022/12/04 10:07:27;;;;;;;;;35.50;27.00;;;;;6.54;63.82;100498.34;6115660;23;45576;-77
2022/12/04 10:10:48;;;;;;;;;38.25;30.50;;;;;6.50;63.43;100504.66;6114861;23;46465;-79
2022/12/04 10:17:12;;;;;;;;;37.00;29.75;;;;;6.57;63.50;100511.19;6086424;23;45861;-77
2022/12/04 10:19:49;;;;;;;;;28.25;20.75;;;;;6.56;63.63;100512.13;6085709;23;45530;-77
2022/12/04 10:22:42;;;;;;;;;40.50;34.75;;;;;6.58;63.69;100509.44;6086192;23;47203;-79
2022/12/04 10:25:14;;;;;;;;;39.75;31.25;;;;;6.59;63.66;100511.94;6085983;23;47007;-79
2022/12/04 10:27:39;;;;;;;;;35.50;28.75;;;;;6.63;63.40;100510.00;6086271;23;45915;-78
2022/12/04 10:30:23;;;;;;;;;44.50;38.25;;;;;6.65;63.70;100502.94;6086449;23;45541;-79
2022/12/04 10:32:58;;;;;;;;;38.50;30.50;;;;;6.62;63.63;100503.97;6086304;23;45589;-79
2022/12/04 10:35:33;;;;;;;;;42.25;34.75;;;;;6.62;63.26;100487.50;6086483;23;45643;-80
2022/12/04 10:38:03;;;;;;;;;34.75;32.50;;;;;6.69;63.50;100499.25;6086248;23;45639;-78
2022/12/04 10:40:42;;;;;;;;;37.75;33.50;;;;;6.71;63.26;100503.44;6086826;23;45585;-79
2022/12/04 10:43:22;;;;;;;;;39.00;31.50;;;;;6.72;63.53;100497.31;6087783;23;45568;-79
2022/12/04 10:45:49;;;;;;;;;39.50;31.75;;;;;6.73;63.39;100495.53;6086666;23;46569;-78
2022/12/04 10:48:23;;;;;;;;;41.75;31.50;;;;;6.60;63.24;100476.34;6086781;23;45952;-78
2022/12/04 10:50:48;;;;;;;;;35.50;33.25;;;;;6.74;63.46;100492.03;6087092;23;45574;-79
2022/12/04 10:53:15;;;;;;;;;34.25;30.25;;;;;6.82;63.29;100501.97;6163357;23;46537;-78
2022/12/04 10:55:41;;;;;;;;;44.25;37.75;;;;;6.83;63.35;100507.09;6178659;23;47339;-79
2022/12/04 10:58:17;;;;;;;;;39.00;34.25;;;;;6.79;63.26;100499.56;6178556;22;45513;-78
2022/12/04 11:00:55;;;;;;;;;49.00;34.75;;;;;6.85;63.15;100504.44;6178092;22;45508;-81
2022/12/04 11:03:27;;;;;;;;;41.25;31.50;;;;;6.84;63.38;100492.31;6176723;23;47387;-79
2022/12/04 11:05:55;;;;;;;;;44.75;34.25;;;;;6.74;63.16;100472.03;6178714;22;46051;-78
2022/12/04 11:08:35;;;;;;;;;38.75;31.25;;;;;6.81;63.55;100480.31;6178901;23;45476;-78
2022/12/04 11:11:05;;;;;;;;;35.75;33.50;;;;;6.88;63.23;100496.41;6178899;22;45539;-77
2022/12/04 11:13:30;;;;;;;;;39.00;35.75;;;;;6.89;63.21;100495.50;6178675;22;45450;-78
2022/12/04 11:15:58;;;;;;;;;29.00;20.50;;;;;6.90;63.09;100497.19;6176775;23;48186;-77
2022/12/04 11:18:26;;;;;;;;;41.75;34.00;;;;;6.81;63.23;100477.72;6178793;22;45898;-80
2022/12/04 11:20:56;;;;;;;;;35.50;29.00;;;;;6.89;63.17;100482.47;6179107;22;45514;-79
2022/12/04 11:23:22;;;;;;;;;35.25;30.25;;;;;6.90;63.14;100473.75;6179085;22;46630;-82
2022/12/04 11:25:56;;;;;;;;;40.00;32.75;;;;;6.94;63.05;100477.84;6178764;22;45952;-75
2022/12/04 11:28:27;;;;;;;;;37.75;32.50;;;;;6.93;63.01;100477.00;6178409;23;45528;-77
2022/12/04 11:30:55;;;;;;;;;43.50;32.50;;;;;7.00;63.12;100480.09;6178716;22;45659;-76
2022/12/04 11:33:44;;;;;;;;;36.75;31.50;;;;;7.04;63.09;100484.19;6178849;22;45544;-76
2022/12/04 11:36:28;;;;;;;;;36.50;31.00;;;;;7.07;63.21;100478.81;6178551;22;45749;-76
2022/12/04 11:39:04;;;;;;;;;36.25;29.50;;;;;7.08;63.17;100488.28;6178026;23;45496;-76
2022/12/04 11:41:31;;;;;;;;;33.50;32.00;;;;;7.11;63.40;100483.75;6177951;22;45562;-78
2022/12/04 11:43:58;;;;;;;;;41.50;33.25;;;;;7.13;63.15;100487.09;6178077;23;46581;-82
2022/12/04 11:46:29;;;;;;;;;31.25;26.75;;;;;7.11;63.22;100475.94;6148202;23;47082;-78
2022/12/04 11:48:54;;;;;;;;;61.00;46.75;;;;;7.07;63.10;100455.38;6148952;23;45804;-78
2022/12/04 11:51:22;;;;;;;;;41.00;29.75;;;;;7.21;63.09;100468.41;6149017;23;45549;-76
2022/12/04 11:53:54;;;;;;;;;40.50;33.00;;;;;7.22;63.03;100457.06;6146860;23;46381;-77
2022/12/04 11:56:32;;;;;;;;;38.50;30.50;;;;;7.23;62.92;100461.34;6147997;23;45999;-76
2022/12/04 11:59:12;;;;;;;;;40.00;32.25;;;;;7.24;62.94;100462.16;6147453;23;45704;-76
2022/12/04 12:01:59;;;;;;;;;40.00;31.75;;;;;7.26;63.07;100462.91;6148535;23;45540;-74
2022/12/04 12:04:33;;;;;;;;;43.75;35.75;;;;;7.27;63.07;100460.22;6148494;23;45803;-75
2022/12/04 12:07:10;;;;;;;;;26.25;20.25;;;;;7.29;62.92;100449.72;6147798;23;46163;-74
2022/12/04 12:10:09;;;;;;;;;40.50;35.00;;;;;7.30;63.15;100449.63;6148155;23;45637;-77
2022/12/04 12:12:43;;;;;;;;;47.00;36.75;;;;;7.31;62.92;100448.69;6057459;23;45828;-76
2022/12/04 12:15:32;;;;;;;;;36.00;30.00;;;;;7.32;63.21;100441.72;6057870;23;46392;-76
2022/12/04 12:18:18;;;;;;;;;37.50;33.75;;;;;7.33;63.18;100443.41;6057001;23;45940;-75
2022/12/04 12:21:01;;;;;;;;;35.00;31.50;;;;;7.28;63.16;100443.69;6058259;23;45918;-76
2022/12/04 12:23:38;;;;;;;;;35.50;29.50;;;;;7.33;63.06;100448.59;6058816;23;45772;-76
2022/12/04 12:26:10;;;;;;;;;35.75;29.75;;;;;7.30;63.15;100440.97;6058381;23;46419;-77
2022/12/04 12:28:47;;;;;;;;;33.50;29.75;;;;;7.33;63.02;100443.41;6058708;23;46412;-76
2022/12/04 12:31:34;;;;;;;;;35.25;29.75;;;;;7.33;62.72;100441.63;6059151;23;45891;-76
2022/12/04 12:34:06;;;;;;;;;35.00;31.25;;;;;7.34;63.16;100450.28;6059329;23;45548;-77
2022/12/04 12:36:37;;;;;;;;;39.25;32.00;;;;;7.33;63.06;100451.22;6058367;23;46953;-77
2022/12/04 12:39:21;;;;;;;;;40.00;31.75;;;;;7.29;63.04;100452.34;6058291;23;46156;-77
2022/12/04 12:42:00;;;;;;;;;28.75;25.75;;;;;7.28;63.06;100446.28;6058455;23;45720;-77
2022/12/04 12:44:35;;;;;;;;;41.75;34.50;;;;;7.25;63.02;100453.41;6059274;23;45583;-76
2022/12/04 12:47:08;;;;;;;;;35.50;29.00;;;;;7.24;63.27;100456.94;6058679;23;45775;-77
2022/12/04 12:49:57;;;;;;;;;39.50;32.75;;;;;7.13;63.29;100439.34;6114208;23;45864;-75
2022/12/04 12:56:02;;;;;;;;;40.25;32.75;;;;;7.20;63.57;100453.72;6146179;23;46612;-77
2022/12/04 12:58:30;;;;;;;;;38.75;29.25;;;;;7.20;63.43;100445.88;6149482;23;46477;-78
2022/12/04 13:01:21;;;;;;;;;45.25;35.00;;;;;7.20;63.44;100453.72;6149035;23;45709;-76